Time;durP1;ratioP1;P1;durP2;ratioP2;P2;SDS_P1;SDS_P2;PMS_P1;PMS_P2;Temp;Humidity;BMP_temperature;BMP_pressure;BME280_temperature;BME280_humidity;BME280_pressure;Samples;Min_cycle;Max_cycle;Signal;HPM_P1;HPM_P2
2022/01/06 00:01:24;;;;;;;18.38;7.70;;;;;;;1.38;100.00;97929.38;4962589;28;20081;-62
2022/01/06 00:04:09;;;;;;;13.73;7.63;;;;;;;1.34;100.00;97941.56;5001903;28;20088;-62
2022/01/06 00:06:53;;;;;;;14.03;8.03;;;;;;;1.60;100.00;97944.72;4974706;28;20443;-62
2022/01/06 00:09:37;;;;;;;18.02;7.75;;;;;;;1.64;100.00;97937.69;4970317;28;20289;-64
2022/01/06 00:12:29;;;;;;;13.52;6.45;;;;;;;1.69;100.00;97947.19;4973147;28;20653;-65
2022/01/06 00:15:34;;;;;;;15.10;7.03;;;;;;;1.80;100.00;97952.25;4974166;28;20092;-68
2022/01/06 00:23:04;;;;;;;11.57;6.38;;;;;;;1.72;100.00;97944.53;4967964;28;20097;-62
2022/01/06 00:24:44;;;;;;;14.52;6.35;;;;;;;1.83;100.00;97944.38;4988810;28;20058;-61
2022/01/06 00:27:28;;;;;;;17.20;7.57;;;;;;;1.69;100.00;97935.88;4975175;28;20112;-61
2022/01/06 00:30:13;;;;;;;11.73;6.15;;;;;;;1.79;100.00;97940.09;4960668;28;20701;-64
2022/01/06 00:32:58;;;;;;;12.32;6.68;;;;;;;1.80;100.00;97936.56;4967783;28;20533;-66
2022/01/06 00:35:43;;;;;;;15.02;6.70;;;;;;;2.05;100.00;97949.25;4972085;28;20085;-66
2022/01/06 00:38:28;;;;;;;14.10;6.38;;;;;;;2.06;100.00;97940.50;4981443;28;20061;-67
2022/01/06 00:41:13;;;;;;;12.32;6.00;;;;;;;2.16;100.00;97941.22;4952361;28;20139;-64
2022/01/06 00:43:58;;;;;;;;;;;;;;;2.39;100.00;97949.56;4984071;28;20061;-65
2022/01/06 00:46:42;;;;;;;11.93;5.70;;;;;;;2.35;100.00;97948.75;4966741;28;19968;-68
2022/01/06 00:49:27;;;;;;;10.13;5.68;;;;;;;2.17;100.00;97938.59;4969780;28;20184;-65
2022/01/06 00:52:12;;;;;;;9.43;5.60;;;;;;;2.01;100.00;97944.09;4983383;28;20073;-65
2022/01/06 00:54:57;;;;;;;11.40;5.20;;;;;;;1.99;100.00;97948.47;4971066;28;20458;-65
2022/01/06 00:57:42;;;;;;;8.65;4.88;;;;;;;1.91;100.00;97952.97;4967937;28;20053;-65
2022/01/06 01:00:37;;;;;;;9.82;4.88;;;;;;;1.96;100.00;97957.22;4982337;28;20197;-65
2022/01/06 01:03:22;;;;;;;8.13;5.18;;;;;;;1.98;100.00;97955.44;4969576;28;20054;-64
2022/01/06 01:06:07;;;;;;;8.55;4.72;;;;;;;2.01;100.00;97963.25;4967198;28;20081;-66
2022/01/06 01:08:51;;;;;;;9.55;5.03;;;;;;;1.90;100.00;97959.09;4981749;28;20623;-66
2022/01/06 01:11:37;;;;;;;10.93;5.53;;;;;;;1.93;100.00;97952.06;4983617;28;20053;-66
2022/01/06 01:14:27;;;;;;;10.02;5.30;;;;;;;1.90;100.00;97954.69;4966607;28;20415;-66
2022/01/06 01:17:15;;;;;;;10.02;5.72;;;;;;;1.82;100.00;97959.16;4966148;28;20157;-65
2022/01/06 01:20:04;;;;;;;11.00;5.32;;;;;;;1.79;100.00;97958.38;4952888;28;20097;-65
2022/01/06 01:22:49;;;;;;;10.82;5.90;;;;;;;1.66;100.00;97957.66;4991340;28;20089;-67
2022/01/06 01:25:35;;;;;;;10.40;5.85;;;;;;;1.87;100.00;97965.22;4970569;28;20056;-66
2022/01/06 01:28:19;;;;;;;10.23;5.38;;;;;;;1.83;100.00;97960.06;4995280;28;20088;-63
2022/01/06 01:31:22;;;;;;;9.98;5.40;;;;;;;1.89;100.00;97955.59;4972117;28;20104;-66
2022/01/06 01:34:09;;;;;;;10.98;5.57;;;;;;;1.93;100.00;97951.22;4959554;28;20050;-67
2022/01/06 01:36:55;;;;;;;11.57;5.85;;;;;;;1.82;100.00;97956.56;4976226;28;20061;-64
2022/01/06 01:39:40;;;;;;;11.73;5.38;;;;;;;1.80;100.00;97954.88;4971572;28;20092;-66
2022/01/06 01:42:27;;;;;;;10.38;5.82;;;;;;;1.86;100.00;97950.41;4983265;28;20073;-65
2022/01/06 01:45:11;;;;;;;10.07;4.95;;;;;;;1.91;100.00;97960.81;4980990;28;20553;-65
2022/01/06 01:47:58;;;;;;;10.30;5.85;;;;;;;2.07;100.00;97959.69;4965920;28;20058;-65
2022/01/06 01:50:42;;;;;;;9.52;5.40;;;;;;;2.10;100.00;97947.41;4938685;28;20066;-64
2022/01/06 01:53:28;;;;;;;11.85;5.32;;;;;;;2.12;100.00;97956.09;4983541;28;20073;-63
2022/01/06 01:56:13;;;;;;;10.43;5.43;;;;;;;2.05;100.00;97959.69;4969670;28;20100;-65
2022/01/06 01:58:58;;;;;;;14.32;5.82;;;;;;;2.01;100.00;97959.78;4958728;28;20105;-64
2022/01/06 02:01:43;;;;;;;8.50;4.90;;;;;;;2.08;100.00;97959.66;4969503;28;20109;-63
2022/01/06 02:04:29;;;;;;;7.57;4.75;;;;;;;2.09;100.00;97960.53;4950391;28;20057;-63
2022/01/06 02:07:13;;;;;;;8.93;5.10;;;;;;;2.04;100.00;97949.25;4979254;28;20081;-63
2022/01/06 02:09:58;;;;;;;10.38;5.18;;;;;;;2.12;100.00;97953.50;4970701;28;20064;-64
2022/01/06 02:12:44;;;;;;;10.27;4.90;;;;;;;2.12;100.00;97963.94;4972146;28;20057;-64
2022/01/06 02:15:29;;;;;;;9.68;4.93;;;;;;;2.17;100.00;97963.88;4952432;28;20099;-63
2022/01/06 02:18:14;;;;;;;11.35;5.53;;;;;;;2.20;100.00;97969.03;4971601;28;20058;-64
2022/01/06 02:20:58;;;;;;;8.20;4.30;;;;;;;2.32;100.00;97974.06;4986492;28;20526;-65
2022/01/06 02:23:44;;;;;;;7.47;4.22;;;;;;;2.29;100.00;97969.75;4971087;28;20122;-64
2022/01/06 02:26:29;;;;;;;11.45;4.90;;;;;;;2.27;100.00;97970.69;4987447;28;20052;-63
2022/01/06 02:29:17;;;;;;;7.47;4.07;;;;;;;2.27;100.00;97968.06;4956967;28;20221;-65
2022/01/06 02:32:07;;;;;;;9.23;4.07;;;;;;;2.35;100.00;97964.44;4971989;28;20469;-66
2022/01/06 02:34:52;;;;;;;7.38;3.95;;;;;;;2.46;100.00;97964.25;4956893;28;20463;-67
2022/01/06 02:37:37;;;;;;;8.45;5.00;;;;;;;2.53;100.00;97965.91;4969979;28;20052;-67
2022/01/06 02:40:24;;;;;;;10.32;5.82;;;;;;;2.60;100.00;97960.53;4986557;28;20048;-64
2022/01/06 02:43:09;;;;;;;12.68;7.63;;;;;;;2.83;100.00;97965.34;4991713;28;20137;-64
2022/01/06 02:45:53;;;;;;;12.75;7.40;;;;;;;2.85;100.00;97968.81;4989804;28;20069;-65
2022/01/06 02:48:38;;;;;;;11.60;7.07;;;;;;;2.78;100.00;97975.91;4990396;28;20045;-64
2022/01/06 02:51:22;;;;;;;10.25;6.13;;;;;;;2.86;100.00;97983.59;4960034;28;20113;-63
2022/01/06 02:54:06;;;;;;;8.70;5.40;;;;;;;3.01;100.00;97970.25;4955991;28;20149;-66
2022/01/06 02:56:52;;;;;;;9.73;4.38;;;;;;;3.05;100.00;97979.75;4957099;28;20101;-64
2022/01/06 02:59:37;;;;;;;9.48;5.18;;;;;;;2.94;100.00;97985.19;4985618;28;20101;-64
2022/01/06 03:02:22;;;;;;;7.82;4.78;;;;;;;2.79;100.00;97980.25;4990232;28;20081;-63
2022/01/06 03:05:06;;;;;;;10.25;5.35;;;;;;;2.75;100.00;97982.91;4989943;28;20105;-63
2022/01/06 03:07:52;;;;;;;10.90;4.65;;;;;;;2.72;100.00;97982.97;4985429;28;20080;-63
2022/01/06 03:10:42;;;;;;;8.02;4.05;;;;;;;2.89;100.00;97986.16;4968836;28;20049;-64
2022/01/06 03:13:27;;;;;;;5.82;3.53;;;;;;;3.03;100.00;97981.53;4955906;28;20193;-61
2022/01/06 03:16:11;;;;;;;6.60;4.07;;;;;;;3.11;100.00;97987.47;4977374;28;20073;-64
2022/01/06 03:18:56;;;;;;;7.45;3.70;;;;;;;2.96;100.00;97991.25;4976039;28;20052;-63
2022/01/06 03:21:40;;;;;;;5.63;3.73;;;;;;;3.10;100.00;97994.50;4969866;28;20084;-62
2022/01/06 03:24:25;;;;;;;5.68;3.50;;;;;;;3.22;100.00;97996.88;4973897;28;20765;-67
2022/01/06 03:27:09;;;;;;;5.95;3.65;;;;;;;3.29;100.00;97997.59;4986481;28;20176;-64
2022/01/06 03:29:54;;;;;;;5.63;3.30;;;;;;;3.25;100.00;97999.41;4984917;28;20523;-64
2022/01/06 03:32:38;;;;;;;6.40;4.00;;;;;;;3.12;100.00;97990.06;4977878;28;20128;-64
2022/01/06 03:35:24;;;;;;;5.43;3.25;;;;;;;2.98;100.00;97999.97;4988847;28;20108;-63
2022/01/06 03:38:09;;;;;;;5.80;3.58;;;;;;;2.80;100.00;97995.03;4986776;28;20217;-65
2022/01/06 03:40:54;;;;;;;6.20;3.40;;;;;;;2.88;100.00;97992.28;4971969;28;20105;-63
2022/01/06 03:43:39;;;;;;;6.10;3.50;;;;;;;2.76;100.00;97990.75;4979957;28;20102;-64
2022/01/06 03:46:23;;;;;;;4.72;2.97;;;;;;;2.74;100.00;97971.63;4977156;28;20105;-67
2022/01/06 03:49:08;;;;;;;5.68;3.33;;;;;;;2.76;100.00;97972.44;4982803;28;20088;-63
2022/01/06 03:51:52;;;;;;;5.93;3.38;;;;;;;2.74;100.00;97979.47;4969896;28;20100;-64
2022/01/06 03:54:37;;;;;;;5.25;3.35;;;;;;;2.79;100.00;97982.84;4968478;28;20062;-63
2022/01/06 03:57:22;;;;;;;4.85;3.40;;;;;;;2.72;100.00;97981.22;4970049;28;20057;-62
2022/01/06 04:00:10;;;;;;;9.30;3.53;;;;;;;2.76;100.00;97982.03;4969898;28;20607;-64
2022/01/06 04:02:58;;;;;;;5.72;3.42;;;;;;;2.72;100.00;97982.97;4965214;28;20778;-63
2022/01/06 04:05:43;;;;;;;6.65;4.10;;;;;;;2.55;100.00;97977.19;4986170;28;20048;-63
2022/01/06 04:08:28;;;;;;;5.95;3.50;;;;;;;2.47;100.00;97964.25;4968605;28;20366;-62
2022/01/06 04:11:16;;;;;;;6.88;3.65;;;;;;;2.65;100.00;97984.84;4970135;28;20061;-63
2022/01/06 04:14:00;;;;;;;6.65;3.88;;;;;;;2.66;100.00;97980.47;4968899;28;20104;-62
2022/01/06 04:16:45;;;;;;;7.15;3.90;;;;;;;2.83;100.00;97984.53;4984948;28;20077;-59
2022/01/06 04:19:29;;;;;;;8.10;3.92;;;;;;;2.67;100.00;97982.19;4988632;28;20102;-66
2022/01/06 04:22:14;;;;;;;6.70;3.60;;;;;;;2.71;100.00;97986.47;4960715;28;20590;-67
2022/01/06 04:24:58;;;;;;;6.47;3.80;;;;;;;2.83;100.00;97992.38;4973417;28;20080;-65
2022/01/06 04:27:43;;;;;;;6.82;3.58;;;;;;;2.82;100.00;97992.41;4973654;28;20533;-63
2022/01/06 04:30:28;;;;;;;7.28;4.20;;;;;;;2.73;100.00;97998.66;4973425;28;20109;-62
2022/01/06 04:33:12;;;;;;;6.20;4.05;;;;;;;2.79;100.00;98000.28;4986472;28;20049;-62
2022/01/06 04:35:57;;;;;;;7.88;4.15;;;;;;;2.71;100.00;97994.34;4973292;28;20053;-62
2022/01/06 04:38:41;;;;;;;8.35;4.30;;;;;;;2.91;100.00;97995.72;4972075;28;20112;-63
2022/01/06 04:41:25;;;;;;;5.93;3.88;;;;;;;2.98;100.00;98001.69;4987162;28;20045;-62
2022/01/06 04:44:10;;;;;;;6.83;3.93;;;;;;;2.75;100.00;97998.63;4986780;28;20061;-62
2022/01/06 04:46:54;;;;;;;7.45;4.03;;;;;;;2.62;100.00;97992.75;4988326;28;20432;-64
2022/01/06 04:49:39;;;;;;;7.30;3.90;;;;;;;2.79;100.00;97997.69;4988493;28;20052;-65
2022/01/06 04:52:23;;;;;;;6.28;3.92;;;;;;;2.71;100.00;98004.78;4975451;28;20133;-66
2022/01/06 04:55:09;;;;;;;5.60;2.67;;;;;;;2.85;100.00;98008.06;4989869;28;20056;-66
2022/01/06 04:57:54;;;;;;;2.97;1.58;;;;;;;2.73;100.00;98014.34;4969018;28;20347;-65
2022/01/06 05:00:38;;;;;;;4.13;1.55;;;;;;;2.49;100.00;98016.53;4967052;28;20093;-65
2022/01/06 05:03:23;;;;;;;3.03;1.30;;;;;;;2.57;100.00;98017.25;4981372;28;20089;-65
2022/01/06 05:06:08;;;;;;;4.10;1.42;;;;;;;2.57;100.00;98018.09;4970229;28;20513;-63
2022/01/06 05:08:53;;;;;;;3.22;0.93;;;;;;;2.50;100.00;98029.56;4972205;28;20084;-63
2022/01/06 05:11:38;;;;;;;3.03;1.80;;;;;;;2.62;100.00;98025.88;4943129;28;20088;-64
2022/01/06 05:14:23;;;;;;;3.38;1.50;;;;;;;2.72;100.00;98033.56;4987836;28;20100;-61
2022/01/06 05:17:08;;;;;;;3.88;1.40;;;;;;;2.87;100.00;98037.66;4997186;28;20168;-64
2022/01/06 05:19:52;;;;;;;4.35;1.88;;;;;;;3.07;100.00;98040.78;4953317;28;20053;-62
2022/01/06 05:22:43;;;;;;;5.75;1.92;;;;;;;3.05;100.00;98032.94;4978911;28;20104;-61
2022/01/06 05:25:30;;;;;;;3.08;1.30;;;;;;;2.89;100.00;98028.03;4957429;28;20139;-64
2022/01/06 05:28:15;;;;;;;4.57;1.50;;;;;;;2.77;100.00;98030.88;4953493;28;20060;-62
2022/01/06 05:31:00;;;;;;;3.72;1.48;;;;;;;2.87;100.00;98032.44;4965739;28;20534;-63
2022/01/06 05:33:44;;;;;;;3.95;1.10;;;;;;;2.93;100.00;98027.94;4984732;28;20057;-63
2022/01/06 05:36:29;;;;;;;1.88;1.10;;;;;;;3.20;100.00;98029.19;4985254;28;20116;-64
2022/01/06 05:39:13;;;;;;;3.55;1.30;;;;;;;3.31;100.00;98035.09;4953294;28;20105;-65
2022/01/06 05:41:58;;;;;;;2.25;1.38;;;;;;;3.13;100.00;98025.81;4952511;28;20086;-65
2022/01/06 05:44:43;;;;;;;3.08;1.63;;;;;;;3.15;100.00;98033.66;4983482;28;20064;-63
2022/01/06 05:47:28;;;;;;;7.65;1.60;;;;;;;3.27;100.00;98030.81;4986283;28;20589;-62
2022/01/06 05:50:12;;;;;;;3.43;1.70;;;;;;;3.28;100.00;98040.41;4957981;28;20185;-65
2022/01/06 05:52:56;;;;;;;3.28;1.55;;;;;;;3.23;100.00;98044.84;4982228;28;20045;-65
2022/01/06 05:55:41;;;;;;;4.15;1.50;;;;;;;3.05;100.00;98042.59;4966246;28;20045;-64
2022/01/06 05:58:25;;;;;;;3.22;1.67;;;;;;;3.07;100.00;98044.28;4967869;28;20451;-63
2022/01/06 06:01:10;;;;;;;3.30;1.33;;;;;;;2.83;100.00;98049.06;4979075;28;20077;-64
2022/01/06 06:03:55;;;;;;;5.78;2.00;;;;;;;2.63;100.00;98051.16;4967397;28;20061;-63
2022/01/06 06:06:40;;;;;;;4.60;1.80;;;;;;;2.89;100.00;98036.72;4951973;28;20410;-65
2022/01/06 06:09:24;;;;;;;3.97;1.80;;;;;;;3.10;100.00;98046.84;4985924;28;20049;-63
2022/01/06 06:12:10;;;;;;;3.00;1.80;;;;;;;2.92;100.00;98041.94;4956739;28;20061;-63
2022/01/06 06:14:55;;;;;;;5.30;2.17;;;;;;;2.83;100.00;98046.44;4953370;28;20061;-63
2022/01/06 06:17:39;;;;;;;3.92;1.80;;;;;;;2.71;100.00;98031.84;4977612;28;20077;-62
2022/01/06 06:20:24;;;;;;;4.28;1.98;;;;;;;2.61;100.00;98045.94;4971231;28;20105;-63
2022/01/06 06:23:09;;;;;;;5.53;2.25;;;;;;;2.73;100.00;98031.81;4996168;28;20065;-64
2022/01/06 06:25:53;;;;;;;5.78;1.92;;;;;;;2.67;100.00;98043.25;4974854;28;20180;-63
2022/01/06 06:28:38;;;;;;;3.15;2.00;;;;;;;2.65;100.00;98038.94;4990840;28;20050;-63
2022/01/06 06:31:23;;;;;;;4.55;2.03;;;;;;;2.73;100.00;98040.50;4989304;28;20096;-65
2022/01/06 06:34:09;;;;;;;3.50;1.88;;;;;;;2.65;100.00;98034.53;4992376;28;20100;-67
2022/01/06 06:36:53;;;;;;;6.75;2.60;;;;;;;2.45;100.00;98028.78;4980616;28;20056;-67
2022/01/06 06:39:38;;;;;;;7.53;2.58;;;;;;;2.50;100.00;98024.31;4964045;28;20173;-63
2022/01/06 06:42:30;;;;;;;6.07;2.67;;;;;;;2.50;100.00;98021.72;4971244;28;20096;-62
2022/01/06 06:45:15;;;;;;;7.32;2.53;;;;;;;2.37;100.00;98019.34;4988924;28;20060;-64
2022/01/06 06:48:00;;;;;;;7.10;2.63;;;;;;;2.67;100.00;98022.31;4987964;28;20077;-63
2022/01/06 06:50:45;;;;;;;6.55;2.70;;;;;;;2.61;100.00;98021.56;4974371;28;20144;-64
2022/01/06 06:53:30;;;;;;;11.45;2.63;;;;;;;2.58;100.00;98014.63;4987882;28;20418;-64
2022/01/06 06:56:14;;;;;;;8.15;2.50;;;;;;;2.84;100.00;98012.41;4974957;28;20057;-67
2022/01/06 06:58:59;;;;;;;4.90;3.17;;;;;;;2.84;100.00;98016.75;4964451;28;20105;-62
2022/01/06 07:01:44;;;;;;;7.20;3.03;;;;;;;2.82;100.00;98016.81;4955191;28;20065;-69
2022/01/06 07:04:28;;;;;;;5.65;2.88;;;;;;;3.02;100.00;98019.06;4988899;28;20419;-64
2022/01/06 07:07:14;;;;;;;7.53;3.13;;;;;;;3.21;100.00;98018.69;4971172;28;20518;-63
2022/01/06 07:09:59;;;;;;;8.93;2.63;;;;;;;3.22;100.00;98020.44;4988587;28;20052;-64
2022/01/06 07:12:45;;;;;;;5.53;2.80;;;;;;;3.22;100.00;98019.56;4973841;28;20054;-63
2022/01/06 07:15:32;;;;;;;6.53;3.08;;;;;;;3.41;100.00;98023.56;4974188;28;20530;-65
2022/01/06 07:18:17;;;;;;;7.18;3.05;;;;;;;3.30;100.00;98020.28;4941830;28;20057;-64
2022/01/06 07:21:02;;;;;;;5.43;2.50;;;;;;;2.96;100.00;98020.03;4969920;28;20105;-62
2022/01/06 07:23:47;;;;;;;9.50;2.80;;;;;;;2.74;100.00;98028.31;4944854;28;20053;-64
2022/01/06 07:26:32;;;;;;;9.00;3.58;;;;;;;2.65;100.00;98031.06;4945100;28;20061;-70
2022/01/06 07:29:17;;;;;;;9.07;4.57;;;;;;;2.51;100.00;98033.91;4971284;28;20045;-70
2022/01/06 07:32:02;;;;;;;8.32;4.53;;;;;;;2.47;100.00;98031.38;4953675;28;20049;-63
2022/01/06 07:34:47;;;;;;;7.88;4.65;;;;;;;2.62;100.00;98036.34;4969294;28;20098;-68
2022/01/06 07:37:33;;;;;;;10.82;4.72;;;;;;;2.52;100.00;98040.88;4946098;28;20084;-64
2022/01/06 07:40:19;;;;;;;11.00;4.82;;;;;;;2.57;100.00;98039.03;4988332;28;20100;-64
2022/01/06 07:43:03;;;;;;;10.27;5.15;;;;;;;2.54;100.00;98033.84;4989082;28;20223;-64
2022/01/06 07:45:49;;;;;;;12.68;6.63;;;;;;;2.55;100.00;98030.38;4971994;28;20054;-63
2022/01/06 07:48:48;;;;;;;16.83;8.25;;;;;;;2.64;100.00;98029.31;4968485;28;20466;-64
2022/01/06 07:51:33;;;;;;;10.15;5.22;;;;;;;2.93;100.00;98035.78;4966824;28;20065;-64
2022/01/06 07:54:17;;;;;;;11.15;5.90;;;;;;;2.97;100.00;98031.38;4987772;28;20223;-65
2022/01/06 07:57:03;;;;;;;12.82;5.80;;;;;;;2.97;100.00;98028.78;4986688;28;20143;-62
2022/01/06 07:59:48;;;;;;;12.23;4.78;;;;;;;2.91;100.00;98029.75;4981492;28;20058;-62
2022/01/06 08:02:32;;;;;;;9.15;5.15;;;;;;;3.07;100.00;98025.94;4979110;28;20053;-63
2022/01/06 08:05:21;;;;;;;9.40;5.25;;;;;;;3.08;100.00;98026.78;4969735;28;20066;-67
2022/01/06 08:08:06;;;;;;;12.88;5.22;;;;;;;3.08;100.00;98027.66;4978548;28;20076;-72
2022/01/06 08:10:52;;;;;;;10.60;5.50;;;;;;;2.62;100.00;98025.88;4945373;28;20142;-67
2022/01/06 08:13:37;;;;;;;8.07;4.88;;;;;;;2.47;100.00;98010.44;4953941;28;20062;-62
2022/01/06 08:16:22;;;;;;;9.90;5.18;;;;;;;2.50;100.00;98005.16;4967608;28;20423;-62
2022/01/06 08:19:07;;;;;;;;;;;;;;;2.72;100.00;98012.63;4986903;28;20049;-66
2022/01/06 08:21:52;;;;;;;7.65;4.20;;;;;;;2.47;100.00;97997.38;4969204;28;19932;-65
2022/01/06 08:24:38;;;;;;;9.82;5.40;;;;;;;2.44;100.00;98003.50;4969625;28;20105;-66
2022/01/06 08:27:23;;;;;;;16.58;5.78;;;;;;;2.56;100.00;97999.81;4971012;28;20040;-66
2022/01/06 08:30:10;;;;;;;8.02;5.30;;;;;;;2.63;100.00;98004.06;4945907;28;20042;-65
2022/01/06 08:32:56;;;;;;;9.45;5.22;;;;;;;2.57;100.00;97998.97;4984678;28;20573;-65
2022/01/06 08:35:41;;;;;;;9.32;5.65;;;;;;;2.58;100.00;98009.41;4984904;28;20052;-68
2022/01/06 08:38:25;;;;;;;10.75;5.78;;;;;;;2.53;100.00;98015.59;4982437;28;20057;-65
2022/01/06 08:41:10;;;;;;;13.33;6.10;;;;;;;2.51;100.00;98012.13;4980902;28;20053;-65
2022/01/06 08:43:54;;;;;;;9.73;5.72;;;;;;;2.62;100.00;98005.84;4981170;28;20421;-64
2022/01/06 08:46:39;;;;;;;13.40;6.07;;;;;;;2.72;100.00;98015.25;4981478;28;20049;-63
2022/01/06 08:49:23;;;;;;;11.02;5.80;;;;;;;2.66;100.00;98007.50;4957666;28;20287;-65
2022/01/06 08:52:09;;;;;;;10.70;6.25;;;;;;;2.61;100.00;98006.69;4982269;28;20478;-68
2022/01/06 08:54:54;;;;;;;9.93;6.00;;;;;;;2.62;100.00;98010.19;4964450;28;20057;-64
2022/01/06 08:57:39;;;;;;;10.52;5.70;;;;;;;2.63;100.00;98011.91;4973004;28;20061;-65
2022/01/06 09:00:24;;;;;;;11.68;5.82;;;;;;;2.47;100.00;98002.59;4979764;28;20053;-66
2022/01/06 09:03:09;;;;;;;;;;;;;;;2.56;100.00;98005.94;4971898;28;20101;-65
2022/01/06 09:05:54;;;;;;;7.88;5.05;;;;;;;2.45;100.00;98012.22;4987650;28;19956;-67
2022/01/06 09:08:39;;;;;;;8.30;5.43;;;;;;;2.38;100.00;98005.38;4976737;28;20049;-66
2022/01/06 09:11:24;;;;;;;12.35;5.63;;;;;;;2.43;100.00;98011.38;4949371;28;20414;-68
2022/01/06 09:14:10;;;;;;;10.57;5.80;;;;;;;2.49;100.00;98001.69;4968796;28;20046;-66
2022/01/06 09:16:55;;;;;;;10.50;5.38;;;;;;;2.68;100.00;97999.59;4965958;28;20101;-63
2022/01/06 09:19:40;;;;;;;10.75;5.50;;;;;;;2.52;100.00;97998.16;4976643;28;20056;-65
2022/01/06 09:22:25;;;;;;;10.40;5.55;;;;;;;2.36;100.00;98007.13;4984152;28;20150;-67
2022/01/06 09:25:11;;;;;;;9.80;5.40;;;;;;;2.48;100.00;98001.69;4981861;28;20068;-65
2022/01/06 09:27:56;;;;;;;12.60;5.10;;;;;;;2.59;100.00;97997.16;4978276;28;20577;-64
2022/01/06 09:30:40;;;;;;;15.20;5.75;;;;;;;2.53;100.00;97990.28;4984607;28;20101;-66
2022/01/06 09:33:25;;;;;;;12.35;5.50;;;;;;;2.48;100.00;97992.13;4982306;28;20532;-65
2022/01/06 09:36:10;;;;;;;9.15;4.70;;;;;;;2.48;100.00;97992.13;4981202;28;20116;-64
2022/01/06 09:38:59;;;;;;;11.40;5.60;;;;;;;2.47;100.00;97990.41;4972413;28;20056;-64
2022/01/06 09:41:45;;;;;;;8.25;4.82;;;;;;;2.55;100.00;97992.88;4967588;28;20534;-64
2022/01/06 09:44:31;;;;;;;8.35;4.38;;;;;;;2.76;100.00;98001.22;4971089;28;20073;-66
2022/01/06 09:47:18;;;;;;;10.00;5.05;;;;;;;2.66;100.00;97997.06;4985957;28;20061;-69
2022/01/06 09:50:05;;;;;;;11.02;4.88;;;;;;;2.57;100.00;98004.19;4965010;28;20085;-65
2022/01/06 09:52:51;;;;;;;8.23;4.88;;;;;;;2.57;100.00;98002.41;4986885;28;20134;-65
2022/01/06 09:55:39;;;;;;;9.13;4.72;;;;;;;2.61;100.00;98001.47;4980231;28;20049;-69
2022/01/06 09:58:28;;;;;;;10.15;5.25;;;;;;;2.52;100.00;97992.91;4973056;28;20080;-66
2022/01/06 10:01:14;;;;;;;10.60;4.95;;;;;;;2.51;100.00;97991.19;4986922;28;20101;-64
2022/01/06 10:03:58;;;;;;;8.40;3.80;;;;;;;2.56;100.00;97982.38;4945887;28;20057;-64
2022/01/06 10:06:56;;;;;;;11.80;4.13;;;;;;;2.46;100.00;97983.41;4955982;28;20425;-64
2022/01/06 10:09:42;;;;;;;7.68;4.13;;;;;;;2.52;100.00;97992.91;4988040;28;20057;-66
2022/01/06 10:12:27;;;;;;;7.35;3.90;;;;;;;2.70;100.00;97990.88;4975194;28;20064;-66
2022/01/06 10:15:22;;;;;;;8.65;3.70;;;;;;;2.91;100.00;97984.38;4985201;28;20053;-66
2022/01/06 10:18:16;;;;;;;7.00;3.75;;;;;;;3.21;100.00;97983.81;4987702;28;20516;-67
2022/01/06 10:21:12;;;;;;;7.35;3.67;;;;;;;3.16;100.00;97985.63;4985135;28;20054;-65
2022/01/06 10:24:00;;;;;;;6.70;4.03;;;;;;;3.04;100.00;97989.34;4970019;28;20123;-69
2022/01/06 10:27:04;;;;;;;7.63;3.83;;;;;;;3.23;100.00;97984.63;4984541;28;20102;-66
2022/01/06 10:29:51;;;;;;;7.07;4.10;;;;;;;3.09;100.00;97986.66;4955954;28;20550;-66
2022/01/06 10:32:38;;;;;;;8.88;4.60;;;;;;;2.99;100.00;97985.97;4969785;28;20054;-68
2022/01/06 10:35:23;;;;;;;8.00;4.43;;;;;;;2.93;100.00;97993.06;4957216;28;20061;-68
2022/01/06 10:38:08;;;;;;;7.30;4.20;;;;;;;2.78;100.00;97982.88;4973191;28;20154;-67
2022/01/06 10:40:53;;;;;;;10.50;4.85;;;;;;;2.90;100.00;97980.91;4975278;28;20057;-65
2022/01/06 10:43:38;;;;;;;11.88;4.93;;;;;;;2.98;100.00;97970.28;4987426;28;20074;-71
2022/01/06 10:46:40;;;;;;;7.30;4.22;;;;;;;3.10;100.00;97975.28;4983893;28;20053;-69
2022/01/06 10:49:25;;;;;;;9.10;4.10;;;;;;;3.07;100.00;97972.72;4956437;28;20474;-68
2022/01/06 10:52:10;;;;;;;7.57;4.32;;;;;;;2.99;100.00;97969.38;4981428;28;20061;-70
2022/01/06 10:54:55;;;;;;;9.00;4.30;;;;;;;2.95;100.00;97955.50;4973039;28;20475;-65
2022/01/06 10:57:58;;;;;;;;;;;;;;;2.83;100.00;97962.72;4987801;28;20054;-73
2022/01/06 11:00:57;;;;;;;12.30;4.95;;;;;;;2.76;100.00;97961.09;4953964;28;19925;-67
2022/01/06 11:03:42;;;;;;;11.63;6.70;;;;;;;2.73;100.00;97963.78;4942806;28;20081;-66
2022/01/06 11:06:27;;;;;;;9.68;4.30;;;;;;;2.57;100.00;97964.94;4955863;28;20061;-67
2022/01/06 11:09:14;;;;;;;;;;;;;;;2.65;100.00;97960.44;4954242;28;20078;-67
2022/01/06 11:14:46;;;;;;;9.48;4.72;;;;;;;2.79;100.00;97956.69;4974391;28;20056;-74
2022/01/06 11:17:32;;;;;;;6.75;3.72;;;;;;;2.81;100.00;97962.75;4969404;28;20050;-65
2022/01/06 11:20:25;;;;;;;9.35;4.28;;;;;;;3.02;100.00;97959.75;4956003;28;20054;-66
2022/01/06 11:23:22;;;;;;;7.57;3.45;;;;;;;3.09;100.00;97960.47;4962310;28;20084;-66
2022/01/06 11:26:15;;;;;;;7.68;4.55;;;;;;;3.28;100.00;97962.69;4962901;28;20144;-68
2022/01/06 11:29:03;;;;;;;5.85;3.22;;;;;;;3.21;100.00;97957.63;4972616;28;20128;-66
2022/01/06 11:31:51;;;;;;;8.40;3.47;;;;;;;3.24;100.00;97957.56;4947539;28;20422;-71
2022/01/06 11:34:38;;;;;;;7.90;3.33;;;;;;;3.28;100.00;97961.84;4961926;28;20625;-64
2022/01/06 11:37:24;;;;;;;7.65;4.05;;;;;;;3.45;100.00;97960.56;4978311;28;20054;-67
2022/01/06 11:40:11;;;;;;;13.00;3.78;;;;;;;3.20;100.00;97967.22;4996754;28;20045;-68
2022/01/06 11:42:57;;;;;;;12.25;4.72;;;;;;;3.33;100.00;97967.84;4974483;28;20529;-75
2022/01/06 11:45:43;;;;;;;7.20;3.60;;;;;;;3.38;100.00;97968.59;4988308;28;20137;-69
2022/01/06 11:48:28;;;;;;;7.20;3.75;;;;;;;3.29;100.00;97971.44;4960519;28;20132;-67
2022/01/06 11:51:31;;;;;;;7.70;3.75;;;;;;;3.39;100.00;97978.19;4955087;28;20160;-77
2022/01/06 11:54:19;;;;;;;8.00;4.13;;;;;;;3.36;100.00;97975.66;4983320;28;20085;-70
2022/01/06 11:57:03;;;;;;;11.75;4.85;;;;;;;3.32;100.00;97980.06;4985790;28;20057;-66
2022/01/06 11:59:48;;;;;;;11.45;4.55;;;;;;;3.27;100.00;97973.19;4958141;28;20641;-70
2022/01/06 12:02:33;;;;;;;9.80;4.43;;;;;;;3.14;100.00;97979.56;4972508;28;20181;-67
2022/01/06 12:05:18;;;;;;;9.10;4.90;;;;;;;3.15;100.00;97979.53;4958897;28;20092;-65
2022/01/06 12:08:04;;;;;;;14.02;6.15;;;;;;;3.02;100.00;97985.91;4987223;28;20108;-66
2022/01/06 12:10:51;;;;;;;12.20;5.35;;;;;;;3.15;100.00;97976.06;4986468;28;20088;-66
2022/01/06 12:13:46;;;;;;;11.30;5.68;;;;;;;3.17;100.00;97977.75;4987155;28;20069;-66
2022/01/06 12:16:36;;;;;;;9.52;5.00;;;;;;;3.32;100.00;97982.69;4971539;28;20065;-67
2022/01/06 12:19:25;;;;;;;8.32;5.28;;;;;;;3.40;100.00;97980.78;4986064;28;20075;-67
2022/01/06 12:22:14;;;;;;;10.57;5.15;;;;;;;3.53;100.00;97974.38;4987050;28;20061;-64
2022/01/06 12:25:05;;;;;;;10.57;5.40;;;;;;;3.56;100.00;97970.84;4969619;28;20093;-66
2022/01/06 12:27:56;;;;;;;9.80;5.53;;;;;;;3.44;100.00;97968.50;4987816;28;20045;-68
2022/01/06 12:30:41;;;;;;;11.30;6.00;;;;;;;3.23;100.00;97969.78;4978735;28;20419;-66
2022/01/06 12:33:31;;;;;;;11.18;6.55;;;;;;;3.31;100.00;97978.34;4985557;28;20101;-69
2022/01/06 12:36:19;;;;;;;11.68;5.75;;;;;;;3.43;100.00;97985.09;4975646;28;20153;-69
2022/01/06 12:39:21;;;;;;;11.10;6.40;;;;;;;3.23;100.00;97987.25;4955055;28;20049;-66
2022/01/06 12:42:08;;;;;;;13.52;7.00;;;;;;;2.96;100.00;97991.25;4970879;28;20112;-67
2022/01/06 12:44:54;;;;;;;15.23;6.95;;;;;;;2.72;100.00;97996.06;4971013;28;20061;-68
2022/01/06 12:47:47;;;;;;;10.95;6.20;;;;;;;2.71;100.00;98005.66;4954835;28;20494;-65
2022/01/06 12:50:50;;;;;;;11.23;6.72;;;;;;;2.61;100.00;98000.63;4971568;28;20184;-63
2022/01/06 12:53:39;;;;;;;13.95;6.72;;;;;;;2.71;100.00;98004.78;4970970;28;20147;-67
2022/01/06 12:56:25;;;;;;;11.23;5.88;;;;;;;2.58;100.00;98005.91;4983423;28;20128;-65
2022/01/06 12:59:26;;;;;;;12.52;6.18;;;;;;;2.58;100.00;98013.75;4955582;28;20487;-67
2022/01/06 13:02:15;;;;;;;12.82;6.13;;;;;;;2.63;100.00;98012.78;4958466;28;20057;-67
2022/01/06 13:05:03;;;;;;;10.02;5.80;;;;;;;2.72;100.00;98019.59;4948795;28;20137;-67
2022/01/06 13:07:48;;;;;;;14.10;6.43;;;;;;;2.62;100.00;98016.31;4969101;28;20754;-67